Time;durP1;ratioP1;P1;durP2;ratioP2;P2;SDS_P1;SDS_P2;PMS_P1;PMS_P2;Temp;Humidity;BMP_temperature;BMP_pressure;BME280_temperature;BME280_humidity;BME280_pressure;Samples;Min_cycle;Max_cycle;Signal;HPM_P1;HPM_P2
2021/07/15 00:00:34;;;;;;;3.25;2.40;;;16.30;92.10;;;16.12;74.05;94653.47;5020660;28;20212;-86
2021/07/15 00:03:07;;;;;;;2.90;2.65;;;16.30;91.80;;;16.10;74.33;94645.78;5054222;28;20227;-87
2021/07/15 00:05:36;;;;;;;2.38;2.20;;;16.30;92.00;;;16.13;74.45;94649.81;5037714;28;20298;-87
2021/07/15 00:08:06;;;;;;;3.05;2.55;;;16.20;92.10;;;16.10;74.51;94652.91;5021329;28;20209;-87
2021/07/15 00:10:47;;;;;;;3.65;2.30;;;16.20;92.10;;;16.00;74.02;94638.44;5016475;28;20750;-87
2021/07/15 00:13:14;;;;;;;6.43;3.45;;;16.20;92.00;;;16.11;74.57;94660.63;5001274;28;20188;-87
2021/07/15 00:15:47;;;;;;;2.60;2.40;;;16.30;92.30;;;16.12;74.39;94662.22;5001147;28;20341;-86
2021/07/15 00:18:27;;;;;;;2.63;2.42;;;16.30;92.10;;;16.14;74.16;94657.50;5002254;28;20192;-87
2021/07/15 00:20:58;;;;;;;3.58;2.30;;;16.20;92.00;;;16.15;74.58;94667.06;5032569;28;20233;-88
2021/07/15 00:23:26;;;;;;;2.80;2.60;;;16.30;92.20;;;16.15;74.93;94659.13;5036594;28;20245;-87
2021/07/15 00:25:53;;;;;;;2.70;2.50;;;16.20;92.20;;;16.14;74.27;94652.22;5037020;28;20254;-87
2021/07/15 00:28:21;;;;;;;2.47;2.28;;;16.20;92.30;;;16.08;74.24;94645.22;5020407;28;20206;-87
2021/07/15 00:30:48;;;;;;;2.60;2.40;;;16.20;92.30;;;16.12;73.67;94656.91;5032996;28;20276;-87
2021/07/15 00:33:16;;;;;;;2.80;2.60;;;16.30;92.20;;;16.08;73.96;94653.16;5009091;28;20196;-86
2021/07/15 00:35:43;;;;;;;2.85;2.55;;;16.20;92.20;;;16.03;73.97;94655.69;5000539;28;20612;-87
2021/07/15 00:38:10;;;;;;;2.60;2.40;;;16.20;92.20;;;16.02;74.04;94659.38;5033291;28;20216;-86
2021/07/15 00:40:38;;;;;;;3.67;2.70;;;16.20;92.20;;;15.99;74.45;94658.00;5036421;28;20297;-87
2021/07/15 00:43:07;;;;;;;2.80;2.60;;;16.20;92.10;;;15.97;74.38;94657.41;5019731;28;20203;-87
2021/07/15 00:45:34;;;;;;;2.75;2.55;;;16.20;92.10;;;15.96;74.37;94655.78;5053020;28;20234;-87
2021/07/15 00:48:02;;;;;;;3.40;3.10;;;16.20;92.20;;;15.94;74.14;94655.25;5036672;28;20278;-87
2021/07/15 00:50:30;;;;;;;3.28;2.97;;;16.10;92.20;;;15.94;74.65;94654.41;5020066;28;20778;-87
2021/07/15 00:52:58;;;;;;;3.20;2.90;;;16.20;92.20;;;15.91;74.50;94660.97;5048126;28;20633;-88
2021/07/15 00:55:32;;;;;;;3.78;3.35;;;16.20;92.20;;;15.89;74.50;94657.75;5036582;28;20215;-88
2021/07/15 00:58:00;;;;;;;3.00;2.78;;;16.10;92.00;;;15.87;74.43;94664.31;5020246;28;20192;-88
2021/07/15 01:00:28;;;;;;;3.65;3.35;;;16.10;92.10;;;15.87;74.30;94662.50;5036105;28;20226;-87
2021/07/15 01:02:57;;;;;;;3.60;3.20;;;16.10;92.20;;;15.80;74.42;94646.69;5036501;28;20195;-87
2021/07/15 01:05:32;;;;;;;3.38;3.05;;;16.00;92.30;;;15.83;74.25;94659.50;5036316;28;20231;-87
2021/07/15 01:08:04;;;;;;;3.38;3.08;;;16.00;92.10;;;15.81;74.39;94669.47;5035874;28;20648;-87
2021/07/15 01:10:37;;;;;;;2.90;2.70;;;16.00;92.20;;;15.80;74.67;94672.34;5032339;28;20700;-87
2021/07/15 01:13:10;;;;;;;3.22;2.78;;;16.00;92.10;;;15.82;74.93;94670.28;5000426;28;20200;-88
2021/07/15 01:15:43;;;;;;;3.70;2.92;;;16.00;92.40;;;15.82;74.90;94667.66;4989258;28;20314;-88
2021/07/15 01:18:18;;;;;;;3.90;3.40;;;16.00;92.10;;;15.82;74.78;94665.81;5052496;28;20227;-87
2021/07/15 01:21:41;;;;;;;3.97;3.60;;;16.00;92.70;;;15.80;74.31;94665.22;5036460;28;20215;-87
2021/07/15 01:24:31;;;;;;;4.25;3.28;;;16.00;92.00;;;15.79;74.48;94674.16;4960853;28;20233;-86
2021/07/15 01:27:35;;;;;;;3.47;3.15;;;16.00;92.20;;;15.80;74.79;94667.84;4980255;28;20294;-87
2021/07/15 01:30:08;;;;;;;3.55;3.00;;;16.00;92.20;;;15.84;75.20;94679.63;5018345;28;20225;-86
2021/07/15 01:47:14;;;;;;;3.92;3.55;;;16.10;92.50;;;15.90;75.74;94667.31;5053661;28;20232;-87
2021/07/15 01:49:42;;;;;;;4.68;4.07;;;16.10;92.70;;;15.95;76.00;94661.31;5016574;28;20681;-87
2021/07/15 01:52:10;;;;;;;4.15;3.75;;;16.10;92.80;;;15.99;75.78;94665.94;4983556;28;20474;-87
2021/07/15 01:54:38;;;;;;;4.20;3.80;;;16.10;92.80;;;16.00;75.35;94656.97;5015543;28;20632;-87
2021/07/15 01:57:06;;;;;;;4.53;4.10;;;16.10;92.80;;;16.05;75.56;94658.09;4999586;28;20198;-86
2021/07/15 01:59:36;;;;;;;6.35;4.60;;;16.10;92.60;;;16.07;75.68;94653.38;5018135;28;20215;-87
2021/07/15 02:02:05;;;;;;;4.85;3.90;;;16.10;92.50;;;16.06;75.02;94647.28;5026492;28;20195;-87
2021/07/15 02:04:34;;;;;;;5.25;4.75;;;16.20;92.50;;;16.03;75.06;94647.75;5019703;28;20314;-87
2021/07/15 02:07:03;;;;;;;4.82;4.18;;;16.20;92.50;;;16.02;75.43;94642.69;5013229;28;20203;-87
2021/07/15 02:09:30;;;;;;;5.22;4.68;;;16.20;92.60;;;15.98;75.57;94634.44;5035841;28;20257;-88
2021/07/15 02:11:57;;;;;;;7.13;5.60;;;16.20;92.60;;;15.97;75.46;94644.19;5002765;28;20204;-87
2021/07/15 02:14:26;;;;;;;6.50;5.90;;;16.20;92.60;;;15.95;75.68;94634.88;5035451;28;20215;-87
2021/07/15 02:17:00;;;;;;;7.05;6.00;;;16.20;92.70;;;16.00;75.65;94640.25;5018366;28;20239;-88
2021/07/15 02:19:29;;;;;;;6.45;5.70;;;16.20;92.50;;;15.97;75.80;94633.59;5018960;28;20318;-87
2021/07/15 02:21:58;;;;;;;7.50;6.68;;;16.20;92.70;;;16.03;75.79;94637.16;5034006;28;20802;-87
2021/07/15 02:24:27;;;;;;;7.47;6.78;;;16.20;92.70;;;16.09;76.33;94640.75;5033174;28;20277;-86
2021/07/15 02:26:57;;;;;;;6.95;5.80;;;16.20;92.70;;;16.12;75.68;94640.25;5012939;28;20201;-87
2021/07/15 02:29:25;;;;;;;9.57;7.00;;;16.30;92.70;;;16.13;75.97;94631.28;4996983;28;20226;-87
2021/07/15 02:31:58;;;;;;;6.85;6.25;;;16.30;92.80;;;16.11;75.86;94628.88;4996286;28;20184;-87
2021/07/15 02:34:37;;;;;;;6.53;5.57;;;16.20;92.60;;;16.18;75.39;94636.69;5003520;28;20220;-87
2021/07/15 02:37:05;;;;;;;6.88;6.10;;;16.30;92.90;;;16.16;75.97;94628.16;4997203;28;20188;-88
2021/07/15 02:39:33;;;;;;;7.45;6.72;;;16.30;92.80;;;16.13;75.97;94610.91;4995980;28;20307;-86
2021/07/15 02:42:00;;;;;;;7.00;6.30;;;16.30;92.80;;;16.19;75.63;94617.13;4997255;28;20208;-87
2021/07/15 02:44:28;;;;;;;6.93;6.25;;;16.30;92.80;;;16.20;75.51;94624.03;5003041;28;20315;-87
2021/07/15 02:46:55;;;;;;;6.80;6.20;;;16.40;92.70;;;16.21;75.40;94620.34;5015397;28;20231;-86
2021/07/15 02:49:22;;;;;;;7.07;6.38;;;16.30;92.80;;;16.21;75.70;94620.34;4998852;28;20662;-85
2021/07/15 02:51:49;;;;;;;7.07;6.28;;;16.30;92.80;;;16.20;75.78;94617.91;5035938;28;20267;-86
2021/07/15 02:54:19;;;;;;;7.70;6.97;;;16.30;92.70;;;16.15;75.63;94616.00;5049713;28;20225;-85
2021/07/15 02:56:57;;;;;;;6.63;6.03;;;16.30;92.70;;;16.17;74.98;94621.84;5026300;28;20200;-86
2021/07/15 02:59:55;;;;;;;8.35;6.88;;;16.30;92.40;;;16.14;75.07;94625.75;4997409;28;20220;-86
2021/07/15 03:02:54;;;;;;;10.40;6.60;;;16.40;92.40;;;16.07;74.72;94627.72;5032922;28;20199;-87
2021/07/15 03:05:38;;;;;;;7.18;6.57;;;16.30;92.30;;;16.01;74.54;94631.28;5017326;28;20763;-87
2021/07/15 03:08:09;;;;;;;11.23;7.03;;;16.30;92.30;;;15.97;74.99;94630.97;5013271;28;20212;-86
2021/07/15 03:10:37;;;;;;;7.32;6.70;;;16.20;92.30;;;15.93;75.33;94627.19;5012354;28;20220;-87
2021/07/15 03:13:09;;;;;;;7.10;6.50;;;16.10;92.50;;;15.84;74.78;94626.72;5011784;28;20245;-87
2021/07/15 03:15:41;;;;;;;8.13;7.32;;;16.20;92.30;;;15.89;75.26;94633.94;5012788;28;20282;-87
2021/07/15 03:18:12;;;;;;;7.45;6.75;;;16.10;92.40;;;15.89;75.23;94633.16;5035091;28;20188;-86
2021/07/15 03:20:43;;;;;;;8.45;7.65;;;16.10;92.50;;;15.86;75.25;94634.44;5006855;28;20230;-87
2021/07/15 03:23:19;;;;;;;7.43;6.72;;;16.10;92.50;;;15.82;74.93;94631.44;5043582;28;20286;-87
2021/07/15 03:25:50;;;;;;;8.25;7.40;;;16.10;92.40;;;15.87;75.88;94638.69;5004463;28;20238;-88
2021/07/15 03:28:21;;;;;;;8.98;8.00;;;16.20;92.60;;;15.86;75.81;94629.13;5018113;28;20641;-87
2021/07/15 03:30:50;;;;;;;9.43;8.43;;;16.10;92.70;;;15.89;75.57;94638.44;5012574;28;20220;-87
2021/07/15 03:33:23;;;;;;;10.30;9.30;;;16.10;92.80;;;15.85;75.40;94630.16;4987540;28;20211;-86
2021/07/15 03:35:51;;;;;;;9.15;8.32;;;16.10;92.60;;;15.91;75.88;94642.47;5033736;28;20265;-86
2021/07/15 03:38:18;;;;;;;9.55;8.10;;;16.10;92.90;;;15.94;76.22;94638.56;5018649;28;20207;-87
2021/07/15 03:40:49;;;;;;;8.15;7.40;;;16.10;92.90;;;15.96;75.95;94633.84;5028525;28;20648;-87
2021/07/15 03:43:18;;;;;;;8.65;7.50;;;16.20;92.90;;;15.98;76.17;94637.84;5013662;28;20195;-86
2021/07/15 03:45:50;;;;;;;9.82;8.82;;;16.10;92.90;;;16.05;75.98;94635.09;5016000;28;20244;-87
2021/07/15 03:48:18;;;;;;;10.07;9.02;;;16.10;92.90;;;16.08;76.61;94629.34;5001440;28;20258;-87
2021/07/15 03:50:47;;;;;;;8.05;7.22;;;16.20;93.20;;;16.13;76.30;94626.78;5008894;28;20216;-86
2021/07/15 03:53:17;;;;;;;9.73;8.82;;;16.20;93.20;;;16.20;76.53;94631.13;5001711;28;20200;-87
2021/07/15 03:55:45;;;;;;;10.75;9.65;;;16.20;93.10;;;16.24;76.71;94621.72;5011590;28;20224;-87
2021/07/15 03:58:14;;;;;;;9.55;8.63;;;16.30;93.30;;;16.30;76.91;94624.22;5036176;28;20191;-89
2021/07/15 04:00:45;;;;;;;9.90;8.90;;;16.30;93.30;;;16.38;76.53;94627.53;5036248;28;20232;-89
2021/07/15 04:03:21;;;;;;;9.15;8.25;;;16.40;93.40;;;16.41;76.15;94622.56;5021125;28;20225;-89
2021/07/15 04:05:50;;;;;;;9.73;8.73;;;16.50;93.10;;;16.48;76.27;94633.03;5035179;28;20261;-89
2021/07/15 04:08:21;;;;;;;10.50;9.50;;;16.40;93.30;;;16.52;76.54;94628.06;5018781;28;20245;-89
2021/07/15 04:10:50;;;;;;;11.45;8.40;;;16.50;93.30;;;16.53;76.53;94614.59;5035406;28;20322;-88
2021/07/15 04:13:22;;;;;;;10.82;9.23;;;16.50;93.30;;;16.59;76.53;94626.09;5018679;28;20195;-88
2021/07/15 04:15:55;;;;;;;10.73;9.60;;;16.60;93.30;;;16.60;76.09;94625.03;5034571;28;20616;-89
2021/07/15 04:18:28;;;;;;;8.60;7.68;;;16.60;93.30;;;16.56;75.98;94624.69;5036627;28;20202;-88
2021/07/15 04:20:56;;;;;;;10.57;9.48;;;16.60;93.10;;;16.59;75.87;94631.41;5037261;28;20225;-90
2021/07/15 04:23:24;;;;;;;9.57;8.57;;;16.70;93.20;;;16.61;75.80;94624.81;5019904;28;20261;-89
2021/07/15 04:25:53;;;;;;;9.75;8.80;;;16.60;93.20;;;16.62;76.29;94634.38;5020998;28;20243;-90
2021/07/15 04:28:23;;;;;;;10.00;9.02;;;16.70;93.10;;;16.59;76.36;94626.09;5039638;28;20590;-89
2021/07/15 04:31:23;;;;;;;8.70;7.80;;;16.70;93.10;;;16.55;75.38;94625.75;5005392;28;20219;-89
2021/07/15 04:33:50;;;;;;;8.82;8.00;;;16.70;92.80;;;16.61;76.27;94643.34;5046810;28;20207;-89
2021/07/15 04:36:18;;;;;;;9.15;8.35;;;16.70;93.10;;;16.53;75.61;94629.66;5035900;28;20728;-89
2021/07/15 04:38:45;;;;;;;9.25;7.82;;;16.70;93.00;;;16.54;75.62;94634.75;5036128;28;20249;-89
2021/07/15 04:41:14;;;;;;;9.13;8.27;;;16.70;93.00;;;16.58;75.50;94646.47;5016421;28;20207;-88
2021/07/15 04:43:45;;;;;;;8.65;7.78;;;16.70;92.90;;;16.56;75.41;94645.88;5013864;28;20715;-90
2021/07/15 04:46:17;;;;;;;10.10;8.93;;;16.70;93.00;;;16.55;75.53;94657.53;4983043;28;20267;-88
2021/07/15 04:48:45;;;;;;;10.85;9.75;;;16.60;92.90;;;16.48;75.54;94655.00;5003631;28;20286;-87
2021/07/15 04:51:15;;;;;;;10.95;9.43;;;16.60;92.90;;;16.46;75.45;94656.28;5036547;28;20294;-88
2021/07/15 04:53:47;;;;;;;10.68;9.57;;;16.60;92.90;;;16.46;75.42;94659.72;5049297;28;20204;-88
2021/07/15 04:56:16;;;;;;;9.35;8.45;;;16.70;92.70;;;16.43;75.27;94654.91;5017008;28;20195;-89
2021/07/15 04:58:44;;;;;;;12.35;11.10;;;16.60;92.90;;;16.43;75.34;94665.50;5035014;28;20199;-88
2021/07/15 05:01:12;;;;;;;12.05;10.85;;;16.60;92.90;;;16.42;75.45;94655.16;5051071;28;20215;-88
2021/07/15 05:03:40;;;;;;;12.63;10.48;;;16.50;93.00;;;16.37;76.19;94647.91;5051346;28;20198;-88
2021/07/15 05:06:08;;;;;;;12.05;10.00;;;16.50;93.10;;;16.41;76.32;94653.53;5035173;28;20251;-88
2021/07/15 05:08:39;;;;;;;10.55;9.43;;;16.50;93.10;;;16.40;76.53;94644.78;5035910;28;20207;-88
2021/07/15 05:11:08;;;;;;;11.05;9.95;;;16.60;93.20;;;16.52;76.45;94651.91;5019716;28;20218;-88
2021/07/15 05:13:36;;;;;;;11.52;10.27;;;16.60;93.40;;;16.63;76.84;94659.78;5003136;28;20207;-89
2021/07/15 05:16:06;;;;;;;11.13;10.02;;;16.60;93.50;;;16.74;76.91;94660.00;5026730;28;20216;-87
2021/07/15 05:18:34;;;;;;;11.80;10.60;;;16.60;93.70;;;16.75;77.26;94646.50;5000241;28;20196;-88
2021/07/15 05:21:03;;;;;;;13.05;10.82;;;16.70;93.80;;;16.91;77.50;94642.28;5007232;28;20228;-88
2021/07/15 05:23:30;;;;;;;10.90;9.75;;;16.80;94.00;;;17.09;77.78;94640.50;4999963;28;20250;-88
2021/07/15 05:25:57;;;;;;;12.15;10.95;;;16.90;94.20;;;17.21;78.29;94638.59;5018682;28;20257;-89
2021/07/15 05:28:25;;;;;;;13.25;10.85;;;17.00;94.50;;;17.40;78.24;94641.00;5052421;28;20564;-89
2021/07/15 05:30:53;;;;;;;11.90;10.35;;;17.10;94.60;;;17.61;78.59;94642.09;5045451;28;20686;-88
2021/07/15 05:33:21;;;;;;;11.30;10.18;;;17.30;94.80;;;17.83;78.68;94636.06;5016202;28;20280;-89
2021/07/15 05:35:49;;;;;;;11.35;9.65;;;17.40;95.00;;;18.07;78.58;94649.97;5000054;28;20681;-89
2021/07/15 05:38:16;;;;;;;14.48;11.63;;;17.50;95.20;;;18.22;78.60;94646.69;5019474;28;20199;-89
2021/07/15 05:40:44;;;;;;;11.98;10.68;;;17.70;95.40;;;18.29;77.86;94644.66;5031563;28;20756;-90
2021/07/15 05:43:11;;;;;;;11.05;9.95;;;17.90;95.00;;;18.42;77.42;94648.81;5007708;28;20253;-90
2021/07/15 05:45:39;;;;;;;11.10;9.48;;;18.00;94.80;;;18.49;77.23;94648.59;5004034;28;20215;-90
2021/07/15 05:48:06;;;;;;;10.10;9.10;;;18.10;94.60;;;18.52;76.78;94645.47;5026795;28;20210;-89
2021/07/15 05:50:34;;;;;;;12.07;10.85;;;18.20;94.50;;;18.53;76.75;94637.25;5052310;28;20219;-90
2021/07/15 05:53:02;;;;;;;12.30;11.00;;;18.20;94.40;;;18.53;76.47;94642.56;5033481;28;20195;-86
2021/07/15 05:55:30;;;;;;;11.63;10.30;;;18.30;94.20;;;18.47;76.13;94632.09;5008672;28;20211;-87
2021/07/15 05:57:57;;;;;;;10.93;9.80;;;18.30;94.10;;;18.53;76.14;94639.09;5025245;28;20215;-87
2021/07/15 06:00:24;;;;;;;11.43;10.32;;;18.30;94.00;;;18.50;76.21;94631.63;5024367;28;20219;-87
2021/07/15 06:02:52;;;;;;;11.38;10.18;;;18.40;94.00;;;18.52;76.55;94630.31;5024174;28;20642;-87
2021/07/15 06:05:30;;;;;;;10.85;9.85;;;18.40;94.10;;;18.52;76.19;94632.97;5025276;28;20215;-85
2021/07/15 06:07:58;;;;;;;10.55;9.30;;;18.50;94.00;;;18.50;76.89;94621.78;5015466;28;20209;-86
2021/07/15 06:10:27;;;;;;;12.23;10.93;;;18.40;94.00;;;18.63;76.30;94643.72;5027428;28;20207;-86
2021/07/15 06:12:55;;;;;;;10.82;9.70;;;18.50;94.10;;;18.66;76.69;94641.38;5026593;28;20269;-86
2021/07/15 06:15:22;;;;;;;11.73;10.63;;;18.50;94.10;;;18.69;76.82;94640.88;5008755;28;20216;-86
2021/07/15 06:17:50;;;;;;;11.10;9.77;;;18.50;94.10;;;18.75;76.63;94644.38;5028581;28;20708;-86
2021/07/15 06:20:17;;;;;;;11.63;10.48;;;18.50;94.10;;;18.79;76.84;94657.97;5023790;28;20597;-86
2021/07/15 06:22:45;;;;;;;9.77;8.77;;;18.60;94.10;;;18.81;76.75;94651.38;5031010;28;20231;-86
2021/07/15 06:25:14;;;;;;;11.55;10.55;;;18.70;94.10;;;18.87;76.91;94646.88;5019185;28;20220;-85
2021/07/15 06:27:42;;;;;;;11.48;10.05;;;18.70;94.10;;;18.92;77.09;94648.81;5013557;28;20196;-86
2021/07/15 06:30:12;;;;;;;10.85;9.75;;;18.70;94.50;;;18.98;76.36;94648.63;5007148;28;20722;-86
2021/07/15 06:32:39;;;;;;;9.50;8.50;;;18.80;94.40;;;19.04;76.92;94649.47;5006647;28;20204;-86
2021/07/15 06:35:12;;;;;;;9.43;8.52;;;18.80;94.20;;;19.07;76.68;94648.97;5039424;28;20218;-86
2021/07/15 06:37:40;;;;;;;10.00;8.70;;;18.80;94.20;;;19.14;76.85;94649.59;5012895;28;20207;-87
2021/07/15 06:40:12;;;;;;;10.10;9.07;;;18.90;94.20;;;19.20;76.69;94659.22;5027343;28;20268;-87
2021/07/15 06:42:39;;;;;;;10.30;9.40;;;18.90;94.10;;;19.25;77.09;94641.69;5009363;28;20192;-86
2021/07/15 06:45:11;;;;;;;9.82;8.85;;;19.00;94.40;;;19.37;77.25;94655.59;5047569;28;20212;-86
2021/07/15 06:47:39;;;;;;;10.60;9.60;;;19.10;94.20;;;19.47;77.40;94658.38;5021545;28;20224;-86
2021/07/15 06:50:10;;;;;;;10.85;9.77;;;19.10;94.40;;;19.53;76.87;94648.56;4987952;28;20310;-86
2021/07/15 06:52:38;;;;;;;9.80;8.90;;;19.20;94.30;;;19.58;76.57;94653.94;4999186;28;20196;-86
2021/07/15 06:55:06;;;;;;;9.60;8.60;;;19.20;94.40;;;19.63;76.61;94642.53;5008966;28;20223;-87
2021/07/15 06:57:34;;;;;;;9.95;9.00;;;19.30;94.30;;;19.73;76.54;94655.09;5025062;28;20206;-84
2021/07/15 07:00:13;;;;;;;10.10;9.20;;;19.40;94.40;;;19.80;76.76;94653.03;4990901;28;20208;-87
2021/07/15 07:02:43;;;;;;;9.57;8.57;;;19.40;94.20;;;19.90;77.07;94655.78;5026127;28;20207;-85
2021/07/15 07:05:12;;;;;;;9.93;9.02;;;19.50;94.50;;;19.99;77.51;94653.41;5024286;28;20501;-86
2021/07/15 07:07:45;;;;;;;8.48;7.72;;;19.50;94.50;;;20.07;76.97;94658.28;5023712;28;20196;-86
2021/07/15 07:10:13;;;;;;;9.18;8.27;;;19.60;94.50;;;20.10;77.02;94649.78;5011002;28;20249;-86
2021/07/15 07:12:41;;;;;;;9.50;8.60;;;19.70;94.50;;;20.18;76.89;94656.47;5031994;28;20287;-86
2021/07/15 07:15:13;;;;;;;7.95;7.22;;;19.70;94.40;;;20.20;77.11;94649.03;5027823;28;20270;-86
2021/07/15 07:17:41;;;;;;;8.75;7.90;;;19.80;94.30;;;20.35;77.29;94648.28;5028191;28;20271;-86
2021/07/15 07:20:11;;;;;;;9.20;8.30;;;19.90;94.80;;;20.56;77.93;94657.16;5009838;28;20225;-87
2021/07/15 07:22:39;;;;;;;9.88;8.88;;;20.00;94.90;;;20.72;77.99;94652.69;5011708;28;20684;-86
2021/07/15 07:25:09;;;;;;;9.30;8.40;;;20.20;95.30;;;20.93;78.37;94650.91;5009646;28;20216;-86
2021/07/15 07:27:37;;;;;;;10.73;9.70;;;20.20;95.30;;;21.09;77.51;94643.75;5009797;28;20210;-87
2021/07/15 07:30:09;;;;;;;9.75;8.85;;;20.40;95.40;;;21.19;77.24;94637.63;5031827;28;20708;-86
2021/07/15 07:32:36;;;;;;;9.15;8.35;;;20.50;95.10;;;21.32;76.95;94640.81;5014012;28;20192;-85
2021/07/15 07:35:05;;;;;;;9.65;8.75;;;20.60;95.10;;;21.37;76.07;94643.47;4985741;28;20250;-86
2021/07/15 07:37:33;;;;;;;10.40;9.43;;;20.70;94.80;;;21.39;75.27;94638.69;5001325;28;20200;-85
2021/07/15 07:40:03;;;;;;;9.25;8.40;;;20.80;94.60;;;21.41;76.20;94650.69;4985727;28;20220;-86
2021/07/15 07:42:30;;;;;;;9.50;8.60;;;20.90;94.50;;;21.46;77.09;94641.06;5017427;28;20189;-85
2021/07/15 07:44:57;;;;;;;10.10;9.18;;;20.90;94.70;;;21.61;77.26;94643.78;5017363;28;20217;-85
2021/07/15 07:47:24;;;;;;;8.77;7.88;;;21.00;94.90;;;21.71;77.11;94646.44;5017685;28;20678;-86
2021/07/15 07:49:51;;;;;;;9.00;8.18;;;21.10;94.90;;;21.69;76.72;94640.56;5015651;28;20211;-86
2021/07/15 07:52:19;;;;;;;8.52;7.53;;;21.20;94.70;;;21.85;77.08;94635.19;5020748;28;20211;-86
2021/07/15 07:54:46;;;;;;;10.27;8.60;;;21.20;94.90;;;21.96;76.87;94628.78;5020408;28;20236;-85
2021/07/15 07:57:13;;;;;;;8.80;8.00;;;21.30;94.90;;;22.14;76.87;94635.44;5052639;28;20197;-85
2021/07/15 07:59:40;;;;;;;8.55;7.38;;;21.40;94.90;;;22.23;76.95;94638.34;5037377;28;20240;-86
2021/07/15 08:02:08;;;;;;;7.53;6.82;;;21.50;94.70;;;22.30;76.59;94635.34;5053375;28;20201;-85
2021/07/15 08:04:36;;;;;;;8.15;7.45;;;21.60;94.70;;;22.28;75.30;94643.66;5020683;28;20227;-85
2021/07/15 08:07:08;;;;;;;8.20;7.53;;;21.60;94.30;;;22.26;75.15;94637.78;5034978;28;20313;-86
2021/07/15 08:09:42;;;;;;;7.22;6.53;;;21.70;94.20;;;22.26;75.76;94636.97;5037040;28;20221;-86
2021/07/15 08:12:15;;;;;;;7.25;6.65;;;21.70;94.20;;;22.30;75.74;94638.03;5053541;28;20246;-86
2021/07/15 08:14:44;;;;;;;8.05;7.25;;;21.70;94.20;;;22.31;75.60;94634.28;5037396;28;20208;-86
2021/07/15 08:17:13;;;;;;;8.02;7.32;;;21.70;94.10;;;22.30;75.58;94635.34;5036592;28;20197;-85
2021/07/15 08:19:40;;;;;;;8.90;6.93;;;21.80;94.10;;;22.37;75.58;94636.69;5036988;28;20221;-86
2021/07/15 08:22:07;;;;;;;7.88;7.07;;;21.80;94.30;;;22.39;76.17;94615.06;5036417;28;20198;-86
2021/07/15 08:24:35;;;;;;;7.72;7.03;;;21.80;94.40;;;22.52;76.00;94635.84;5019519;28;20226;-86
2021/07/15 08:27:03;;;;;;;7.20;6.50;;;21.80;94.30;;;22.55;75.51;94634.50;5020373;28;20236;-85
2021/07/15 08:29:30;;;;;;;7.88;7.18;;;21.90;94.10;;;22.54;74.82;94636.38;5036732;28;20222;-85
2021/07/15 08:31:59;;;;;;;7.45;6.85;;;21.90;94.00;;;22.53;74.90;94631.28;5019858;28;20317;-86
2021/07/15 08:34:28;;;;;;;6.65;5.95;;;21.90;93.90;;;22.59;75.64;94632.06;5045993;28;20309;-85
2021/07/15 08:36:55;;;;;;;6.90;6.30;;;22.00;94.00;;;22.70;75.84;94630.94;5053352;28;20284;-86
2021/07/15 08:39:24;;;;;;;7.88;7.18;;;22.00;94.30;;;22.83;75.79;94632.22;5036252;28;20225;-85
2021/07/15 08:41:52;;;;;;;7.85;7.15;;;22.10;94.40;;;22.97;76.07;94629.72;5020178;28;20206;-84
2021/07/15 08:44:21;;;;;;;7.55;6.85;;;22.20;94.70;;;23.15;77.08;94631.72;5015952;28;20220;-86
2021/07/15 08:46:49;;;;;;;7.15;6.55;;;22.30;95.00;;;23.32;76.75;94638.63;5016235;28;20220;-86
2021/07/15 08:49:20;;;;;;;7.00;6.40;;;22.40;95.00;;;23.39;76.15;94640.97;5000131;28;20220;-86
2021/07/15 08:51:48;;;;;;;6.45;5.78;;;22.50;94.60;;;23.41;76.00;94636.13;4999783;28;20211;-85
2021/07/15 08:54:17;;;;;;;6.28;5.78;;;22.60;94.30;;;23.44;75.76;94638.25;5017282;28;20281;-85
2021/07/15 08:56:47;;;;;;;6.13;5.63;;;22.70;94.10;;;23.47;75.42;94640.38;5019287;28;20648;-86
2021/07/15 08:59:18;;;;;;;6.38;5.70;;;22.70;93.90;;;23.46;75.29;94634.22;5036286;28;20212;-85
2021/07/15 09:01:50;;;;;;;6.30;5.70;;;22.80;93.80;;;23.50;74.48;94639.81;5035968;28;20219;-85
2021/07/15 09:04:20;;;;;;;6.40;5.90;;;22.80;93.90;;;23.54;74.23;94638.16;5002599;28;20634;-86
2021/07/15 09:06:48;;;;;;;5.82;5.32;;;22.80;94.00;;;23.62;75.11;94626.88;4983647;28;20232;-85
2021/07/15 09:09:16;;;;;;;6.22;5.72;;;22.90;94.10;;;23.82;75.35;94641.16;4983703;28;20287;-86
2021/07/15 09:11:45;;;;;;;6.50;5.78;;;22.90;94.30;;;23.96;75.31;94633.25;4990612;28;20198;-86
2021/07/15 09:14:19;;;;;;;6.43;5.82;;;23.10;94.40;;;24.12;75.90;94640.06;5051939;28;20323;-85
2021/07/15 09:16:48;;;;;;;5.55;5.05;;;23.10;94.00;;;24.23;75.47;94648.00;5035901;28;20596;-85
2021/07/15 09:19:17;;;;;;;5.38;4.97;;;23.30;94.20;;;24.25;75.09;94646.63;5019212;28;20219;-86
2021/07/15 09:21:45;;;;;;;6.28;5.10;;;23.40;94.00;;;24.33;75.28;94649.75;5012925;28;20200;-85
2021/07/15 09:24:32;;;;;;;5.10;4.60;;;23.40;93.90;;;24.28;73.87;94648.75;5015674;28;20222;-86
2021/07/15 09:27:21;;;;;;;5.65;5.25;;;23.60;93.00;;;24.25;73.50;94643.16;4999879;28;20231;-85
2021/07/15 09:30:09;;;;;;;5.38;4.88;;;23.60;92.90;;;24.30;74.27;94649.25;5019294;28;20231;-87
2021/07/15 09:32:57;;;;;;;4.90;4.50;;;23.60;92.90;;;24.36;75.06;94655.34;5035426;28;20192;-85
2021/07/15 09:35:46;;;;;;;4.50;4.20;;;23.70;93.00;;;24.48;75.05;94670.25;5035751;28;20203;-86
2021/07/15 09:38:23;;;;;;;5.35;4.30;;;23.70;93.20;;;24.53;72.89;94660.25;5035037;28;20208;-86
2021/07/15 09:40:59;;;;;;;4.72;4.32;;;23.80;92.70;;;24.63;73.83;94664.69;5035342;28;20348;-86
2021/07/15 09:43:37;;;;;;;4.47;4.07;;;23.80;93.20;;;24.76;74.13;94674.75;5035100;28;20559;-85
2021/07/15 09:46:15;;;;;;;4.32;4.00;;;23.90;92.80;;;24.93;74.72;94671.56;5051054;28;20689;-86
2021/07/15 09:48:45;;;;;;;3.90;3.60;;;24.00;92.80;;;25.19;75.55;94668.53;5035283;28;20195;-86
2021/07/15 09:51:15;;;;;;;3.75;3.45;;;24.10;93.70;;;25.45;75.80;94662.84;5018886;28;20682;-86
2021/07/15 09:53:43;;;;;;;3.85;3.55;;;24.30;93.90;;;25.65;75.04;94663.59;5015099;28;20209;-84
2021/07/15 09:56:16;;;;;;;3.53;3.22;;;24.50;94.00;;;25.86;73.86;94664.84;4999159;28;20288;-86
2021/07/15 09:58:49;;;;;;;3.17;2.97;;;24.70;93.60;;;26.02;72.67;94660.03;4999348;28;20216;-86
2021/07/15 10:01:21;;;;;;;2.97;2.78;;;24.90;92.50;;;26.16;71.96;94668.13;5015603;28;20295;-87
2021/07/15 10:03:55;;;;;;;3.10;2.80;;;25.00;92.50;;;26.26;72.08;94661.75;5030314;28;20207;-85
2021/07/15 10:06:23;;;;;;;3.15;2.95;;;25.20;92.10;;;26.33;71.38;94659.47;5053053;28;20297;-86
2021/07/15 10:08:54;;;;;;;3.10;2.90;;;25.30;92.30;;;26.37;69.69;94657.78;5037083;28;20580;-86
2021/07/15 10:11:29;;;;;;;3.15;2.90;;;25.40;90.80;;;26.44;69.78;94665.44;5022021;28;20224;-86
2021/07/15 10:14:06;;;;;;;3.10;2.90;;;25.50;90.60;;;26.47;70.55;94654.09;5038022;28;20230;-86
2021/07/15 10:16:39;;;;;;;2.70;2.50;;;25.60;90.60;;;26.52;70.12;94662.06;5034847;28;20191;-84
2021/07/15 10:19:17;;;;;;;2.85;2.65;;;25.60;91.00;;;26.57;69.92;94660.38;5003323;28;20214;-85
2021/07/15 10:21:44;;;;;;;2.70;2.50;;;25.70;91.10;;;26.69;70.61;94652.59;5023671;28;20217;-84
2021/07/15 10:24:21;;;;;;;2.92;2.40;;;25.70;91.20;;;26.82;69.53;94649.09;5039454;28;20247;-86
2021/07/15 10:26:51;;;;;;;2.90;2.70;;;25.90;90.10;;;26.97;69.29;94658.75;5038829;28;20222;-86
2021/07/15 10:29:20;;;;;;;2.90;2.70;;;25.90;90.60;;;27.09;69.31;94654.75;5038979;28;20270;-86
2021/07/15 10:31:49;;;;;;;2.65;2.45;;;26.00;90.60;;;27.13;68.61;94664.59;5034834;28;20245;-86
2021/07/15 10:34:17;;;;;;;3.03;2.83;;;26.20;90.30;;;27.18;68.98;94655.59;5027976;28;20480;-87
2021/07/15 10:36:44;;;;;;;2.80;2.60;;;26.20;90.50;;;27.23;67.73;94666.25;5005755;28;20203;-87
2021/07/15 10:39:14;;;;;;;2.90;2.70;;;26.30;90.00;;;27.32;68.54;94652.88;5015424;28;20245;-86
2021/07/15 10:41:45;;;;;;;3.03;2.80;;;26.40;90.00;;;27.56;68.69;94657.19;5017584;28;20499;-87
2021/07/15 10:44:13;;;;;;;2.58;2.38;;;26.50;90.00;;;27.77;68.76;94657.47;4999753;28;20720;-86
2021/07/15 10:46:41;;;;;;;3.00;2.80;;;26.60;90.30;;;27.95;67.20;94658.38;5033995;28;20219;-84